createdAt,value
2022-08-17T00:01:52.509Z,4.32
2022-08-17T00:04:21.080Z,4.93
2022-08-17T00:06:50.435Z,2.78
2022-08-17T00:09:19.337Z,2.95
2022-08-17T00:12:41.839Z,3.85
2022-08-17T00:14:37.735Z,3.05
2022-08-17T00:19:34.242Z,3.13
2022-08-17T00:24:50.974Z,6.55
2022-08-17T00:27:21.117Z,3.17
2022-08-17T00:29:48.857Z,2.83
2022-08-17T00:33:13.660Z,4.72
2022-08-17T00:37:33.083Z,3.75
2022-08-17T00:42:31.156Z,3.28
2022-08-17T00:44:59.365Z,2.72
2022-08-17T00:49:54.487Z,3.00
2022-08-17T00:52:30.568Z,9.82
2022-08-17T00:54:59.308Z,4.28
2022-08-17T00:57:31.449Z,3.95
2022-08-17T01:00:08.202Z,4.95
2022-08-17T01:02:51.525Z,3.10
2022-08-17T01:05:23.753Z,2.72
2022-08-17T01:07:54.300Z,3.17
2022-08-17T01:10:57.619Z,3.13
2022-08-17T01:13:16.190Z,4.10
2022-08-17T01:15:53.187Z,6.68
2022-08-17T01:18:21.403Z,3.45
2022-08-17T01:23:21.407Z,2.53
2022-08-17T01:25:56.403Z,2.30
2022-08-17T01:28:36.417Z,2.72
2022-08-17T01:31:15.928Z,2.40
2022-08-17T01:33:43.706Z,1.60
2022-08-17T01:36:11.512Z,1.73
2022-08-17T01:38:40.286Z,2.75
2022-08-17T01:41:12.602Z,4.68
2022-08-17T01:44:04.340Z,2.10
2022-08-17T01:46:37.020Z,1.15
2022-08-17T01:49:10.694Z,1.42
2022-08-17T01:51:39.320Z,1.90
2022-08-17T01:54:12.838Z,4.43
2022-08-17T01:56:43.545Z,2.30
2022-08-17T01:59:16.772Z,3.85
2022-08-17T02:01:45.356Z,1.95
2022-08-17T02:04:13.705Z,1.52
2022-08-17T02:06:52.959Z,1.75
2022-08-17T02:09:25.725Z,1.75
2022-08-17T02:11:59.258Z,2.08
2022-08-17T02:14:27.211Z,1.25
2022-08-17T02:19:23.919Z,3.83
2022-08-17T02:21:54.516Z,1.45
2022-08-17T02:24:58.707Z,2.67
2022-08-17T02:29:47.389Z,3.85
2022-08-17T02:32:28.163Z,2.88
2022-08-17T02:35:00.445Z,2.22
2022-08-17T02:37:29.892Z,2.40
2022-08-17T02:39:58.766Z,2.30
2022-08-17T02:42:41.318Z,3.63
2022-08-17T02:45:15.503Z,2.70
2022-08-17T02:47:44.422Z,2.28
2022-08-17T02:50:15.307Z,2.10
2022-08-17T02:52:45.077Z,1.88
2022-08-17T02:55:26.091Z,2.17
2022-08-17T02:57:54.558Z,3.00
2022-08-17T03:00:34.078Z,4.53
2022-08-17T03:03:04.631Z,3.55
2022-08-17T03:05:34.838Z,3.10
2022-08-17T03:08:03.636Z,3.85
2022-08-17T03:10:31.613Z,3.10
2022-08-17T03:12:59.838Z,2.15
2022-08-17T03:15:30.991Z,1.95
2022-08-17T03:18:00.105Z,2.80
2022-08-17T03:20:29.983Z,3.38
2022-08-17T03:23:02.786Z,4.45
2022-08-17T03:25:35.171Z,5.07
2022-08-17T03:28:04.577Z,9.43
2022-08-17T03:30:33.186Z,3.45
2022-08-17T03:35:24.416Z,6.57
2022-08-17T03:38:00.399Z,5.57
2022-08-17T03:40:55.841Z,6.10
2022-08-17T03:43:19.105Z,6.30
2022-08-17T03:46:05.156Z,4.93
2022-08-17T03:48:52.135Z,6.18
2022-08-17T03:51:41.809Z,5.32
2022-08-17T03:54:30.361Z,8.10
2022-08-17T03:57:10.108Z,7.00
2022-08-17T03:59:39.039Z,5.80
2022-08-17T04:02:11.207Z,7.43
2022-08-17T04:04:39.782Z,9.32
2022-08-17T04:07:08.133Z,6.22
2022-08-17T04:09:36.939Z,5.45
2022-08-17T04:12:05.815Z,5.55
2022-08-17T04:14:49.476Z,5.80
2022-08-17T04:17:21.989Z,6.37
2022-08-17T04:19:50.050Z,5.85
2022-08-17T04:22:32.068Z,6.97
2022-08-17T04:25:15.924Z,5.63
2022-08-17T04:27:43.777Z,9.07
2022-08-17T04:30:12.477Z,6.00
2022-08-17T04:33:04.943Z,5.75
2022-08-17T04:35:58.557Z,7.90
2022-08-17T04:38:29.394Z,6.85
2022-08-17T04:41:17.193Z,6.93
2022-08-17T04:43:47.203Z,6.25
2022-08-17T04:46:18.216Z,5.50
2022-08-17T04:48:51.943Z,7.03
2022-08-17T04:51:21.325Z,8.98
2022-08-17T04:53:54.451Z,9.88
2022-08-17T04:56:25.173Z,8.13
2022-08-17T04:58:55.702Z,4.65
2022-08-17T05:01:25.471Z,6.60
2022-08-17T05:03:56.362Z,4.82
2022-08-17T05:06:24.320Z,5.78
2022-08-17T05:13:50.398Z,5.28
2022-08-17T05:16:19.671Z,5.88
2022-08-17T05:18:47.462Z,6.10
2022-08-17T05:21:16.197Z,6.50
2022-08-17T05:23:44.899Z,8.82
2022-08-17T05:26:26.804Z,2.15
2022-08-17T05:28:57.156Z,4.97
2022-08-17T05:31:29.515Z,4.20
2022-08-17T05:33:57.401Z,7.47
2022-08-17T05:36:42.575Z,6.35
2022-08-17T05:39:17.093Z,6.60
2022-08-17T05:41:48.535Z,2.70
2022-08-17T05:44:16.758Z,3.83
2022-08-17T05:46:50.253Z,5.22
2022-08-17T05:49:25.348Z,4.55
2022-08-17T05:51:56.071Z,5.18
2022-08-17T05:54:51.412Z,3.38
2022-08-17T05:57:53.278Z,4.70
2022-08-17T06:00:30.414Z,7.43
2022-08-17T06:03:27.961Z,6.93
2022-08-17T06:06:08.895Z,4.28
2022-08-17T06:08:51.910Z,5.43
2022-08-17T06:11:25.982Z,5.97
2022-08-17T06:14:10.026Z,2.67
2022-08-17T06:16:43.523Z,3.72
2022-08-17T06:19:38.500Z,3.05
2022-08-17T06:22:08.760Z,2.28
2022-08-17T06:24:45.929Z,2.40
2022-08-17T06:27:33.556Z,1.40
2022-08-17T06:32:40.119Z,2.25
2022-08-17T06:35:10.623Z,4.18
2022-08-17T06:37:49.692Z,2.67
2022-08-17T06:40:53.345Z,2.90
2022-08-17T06:43:54.062Z,6.25
2022-08-17T06:46:43.586Z,3.03
2022-08-17T06:49:22.045Z,4.55
2022-08-17T06:52:46.495Z,4.65
2022-08-17T06:55:24.098Z,7.43
2022-08-17T06:57:55.414Z,5.78
2022-08-17T07:00:28.114Z,4.80
2022-08-17T07:02:55.991Z,4.80
2022-08-17T07:05:44.773Z,3.92
2022-08-17T07:08:27.712Z,3.60
2022-08-17T07:11:01.463Z,5.75
2022-08-17T07:13:43.407Z,6.22
2022-08-17T07:16:33.119Z,4.55
2022-08-17T07:19:00.887Z,3.28
2022-08-17T07:21:43.771Z,4.22
2022-08-17T07:24:30.719Z,4.70
2022-08-17T07:27:08.551Z,4.68
2022-08-17T07:29:47.170Z,4.60
2022-08-17T07:32:19.011Z,4.03
2022-08-17T07:35:00.748Z,5.15
2022-08-17T07:37:28.521Z,2.85
2022-08-17T07:40:15.196Z,3.78
2022-08-17T07:43:06.038Z,4.03
2022-08-17T07:45:54.118Z,4.55
2022-08-17T07:48:26.228Z,5.95
2022-08-17T07:50:54.898Z,6.07
2022-08-17T07:53:26.099Z,5.53
2022-08-17T07:55:54.231Z,5.75
2022-08-17T07:58:24.157Z,13.40
2022-08-17T08:01:09.101Z,9.93
2022-08-17T08:03:45.475Z,12.25
2022-08-17T08:06:23.957Z,4.30
2022-08-17T08:08:55.256Z,7.13
2022-08-17T08:11:35.513Z,7.53
2022-08-17T08:14:43.845Z,8.38
2022-08-17T08:17:12.177Z,6.60
2022-08-17T08:19:39.868Z,6.47
2022-08-17T08:22:18.793Z,8.15
2022-08-17T08:25:14.981Z,10.45
2022-08-17T08:28:15.037Z,7.28
2022-08-17T08:30:49.387Z,8.63
2022-08-17T08:33:36.569Z,6.95
2022-08-17T08:37:12.576Z,6.07
2022-08-17T08:39:20.860Z,8.15
2022-08-17T08:42:17.801Z,10.48
2022-08-17T08:45:00.585Z,14.68
2022-08-17T08:47:54.589Z,9.10
2022-08-17T08:51:03.554Z,6.03
2022-08-17T08:54:16.768Z,4.82
2022-08-17T08:57:32.846Z,8.05
2022-08-17T09:00:16.510Z,8.38
2022-08-17T09:02:59.256Z,6.50
2022-08-17T09:05:57.993Z,8.23
2022-08-17T09:08:43.808Z,11.90
2022-08-17T09:12:01.987Z,10.63
2022-08-17T09:14:47.163Z,8.75
2022-08-17T09:17:36.295Z,7.15
2022-08-17T09:20:11.333Z,5.85
2022-08-17T09:22:48.490Z,8.93
2022-08-17T09:25:28.579Z,7.80
2022-08-17T09:28:04.681Z,9.00
2022-08-17T09:30:46.456Z,7.95
2022-08-17T09:33:19.029Z,5.95
2022-08-17T09:36:18.829Z,3.97
2022-08-17T09:39:01.568Z,7.43
2022-08-17T09:41:49.344Z,8.43
2022-08-17T09:44:26.126Z,9.38
2022-08-17T09:47:12.218Z,6.15
2022-08-17T09:49:49.015Z,7.90
2022-08-17T09:52:21.636Z,8.90
2022-08-17T09:54:51.691Z,6.78
2022-08-17T09:58:01.730Z,10.32
2022-08-17T10:00:35.600Z,10.02
2022-08-17T10:03:46.076Z,7.90
2022-08-17T10:06:23.015Z,7.40
2022-08-17T10:08:57.523Z,8.25
2022-08-17T10:11:54.433Z,9.23
2022-08-17T10:14:44.444Z,4.38
2022-08-17T10:17:26.032Z,7.07
2022-08-17T10:20:07.257Z,6.57
2022-08-17T10:23:27.621Z,7.00
2022-08-17T10:26:17.315Z,7.13
2022-08-17T10:28:45.822Z,6.57
2022-08-17T10:31:46.331Z,7.05
2022-08-17T10:34:47.982Z,5.65
2022-08-17T10:37:46.642Z,11.50
2022-08-17T10:40:40.650Z,6.00
2022-08-17T10:43:11.613Z,7.55
2022-08-17T10:46:30.394Z,7.40
2022-08-17T10:49:23.494Z,7.00
2022-08-17T10:51:54.532Z,9.40
2022-08-17T10:54:25.497Z,10.35
2022-08-17T10:56:56.158Z,7.25
2022-08-17T10:59:36.086Z,5.82
2022-08-17T11:02:23.300Z,5.70
2022-08-17T11:05:38.964Z,7.90
2022-08-17T11:08:28.275Z,6.40
2022-08-17T11:10:55.962Z,7.65
2022-08-17T11:13:33.761Z,5.25
2022-08-17T11:19:10.195Z,6.75
2022-08-17T11:21:39.240Z,11.07
2022-08-17T11:24:33.065Z,6.38
2022-08-17T11:27:00.859Z,6.65
2022-08-17T11:30:02.207Z,7.97
2022-08-17T11:32:31.315Z,9.15
2022-08-17T11:35:19.384Z,11.25
2022-08-17T11:38:15.904Z,11.23
2022-08-17T11:41:24.102Z,7.15
2022-08-17T11:43:55.786Z,8.55
2022-08-17T11:46:51.764Z,6.65
2022-08-17T11:50:00.637Z,5.82
2022-08-17T11:52:42.335Z,11.73
2022-08-17T11:55:38.433Z,6.95
2022-08-17T11:58:29.595Z,9.95
2022-08-17T12:01:01.316Z,6.50
2022-08-17T12:03:32.416Z,11.43
2022-08-17T12:06:10.993Z,7.03
2022-08-17T12:08:43.585Z,10.23
2022-08-17T12:11:56.359Z,13.30
2022-08-17T12:14:15.220Z,10.65
2022-08-17T12:16:45.682Z,9.30
2022-08-17T12:19:21.136Z,9.75
2022-08-17T12:22:05.063Z,8.35
2022-08-17T12:24:49.286Z,11.00
2022-08-17T12:28:04.320Z,11.60
2022-08-17T12:30:22.114Z,8.75
2022-08-17T12:32:50.107Z,8.25
2022-08-17T12:35:29.652Z,9.98
2022-08-17T12:37:58.022Z,9.38
2022-08-17T12:40:28.818Z,10.25
2022-08-17T12:43:06.341Z,7.85
2022-08-17T12:45:42.537Z,12.52
2022-08-17T12:48:13.343Z,10.60
2022-08-17T12:50:44.884Z,11.73
2022-08-17T12:53:24.965Z,11.15
2022-08-17T12:55:54.850Z,11.48
2022-08-17T12:58:28.171Z,12.73
2022-08-17T13:01:09.232Z,9.65
2022-08-17T13:03:42.890Z,10.20
2022-08-17T13:06:14.698Z,11.73
2022-08-17T13:08:47.847Z,7.57
2022-08-17T13:11:16.529Z,7.40
2022-08-17T13:13:47.158Z,7.45
2022-08-17T13:16:17.101Z,7.43
2022-08-17T13:18:46.559Z,10.00
2022-08-17T13:21:22.326Z,9.35
2022-08-17T13:24:11.421Z,9.25
2022-08-17T13:26:48.152Z,15.57
2022-08-17T13:29:34.165Z,10.90
2022-08-17T13:32:13.050Z,10.23
2022-08-17T13:35:12.246Z,11.15
2022-08-17T13:37:58.549Z,11.52
2022-08-17T13:40:30.582Z,7.93
2022-08-17T13:42:58.757Z,8.82
2022-08-17T13:45:36.720Z,8.63
2022-08-17T13:48:15.719Z,10.48
2022-08-17T13:50:52.678Z,14.40
2022-08-17T13:53:37.809Z,16.13
2022-08-17T13:56:38.235Z,7.55
2022-08-17T13:59:16.687Z,12.73
2022-08-17T14:02:05.491Z,12.00
2022-08-17T14:04:34.252Z,10.57
2022-08-17T14:07:01.931Z,11.98
2022-08-17T14:09:37.389Z,11.95
2022-08-17T14:12:10.745Z,9.23
2022-08-17T14:14:39.437Z,9.23
2022-08-17T14:17:07.968Z,11.63
2022-08-17T14:19:36.462Z,11.43
2022-08-17T14:22:05.143Z,11.55
2022-08-17T14:24:35.500Z,13.48
2022-08-17T14:27:05.244Z,9.10
2022-08-17T14:30:49.336Z,12.02
2022-08-17T14:33:24.923Z,9.38
2022-08-17T14:35:53.730Z,13.45
2022-08-17T14:38:21.628Z,13.95
2022-08-17T14:40:49.674Z,12.73
2022-08-17T14:43:18.515Z,12.30
2022-08-17T14:45:47.055Z,13.90
2022-08-17T14:48:14.889Z,12.43
2022-08-17T14:53:14.218Z,11.77
2022-08-17T14:55:42.095Z,11.32
2022-08-17T15:03:05.403Z,8.73
2022-08-17T15:05:36.862Z,12.50
2022-08-17T15:08:05.957Z,11.93
2022-08-17T15:10:34.301Z,13.95
2022-08-17T15:13:02.896Z,9.95
2022-08-17T15:15:31.083Z,15.23
2022-08-17T15:18:00.067Z,12.45
2022-08-17T15:20:29.977Z,12.20
2022-08-17T15:22:59.229Z,13.10
2022-08-17T15:25:31.959Z,17.10
2022-08-17T15:28:00.897Z,11.15
2022-08-17T15:30:28.765Z,12.10
2022-08-17T15:35:29.451Z,12.45
2022-08-17T15:38:10.545Z,11.35
2022-08-17T15:40:43.252Z,16.17
2022-08-17T15:43:17.304Z,13.63
2022-08-17T15:45:58.703Z,15.82
2022-08-17T15:48:41.482Z,14.93
2022-08-17T15:51:24.269Z,12.65
2022-08-17T15:53:54.711Z,15.20
2022-08-17T15:56:22.980Z,13.60
2022-08-17T15:58:51.370Z,13.77
2022-08-17T16:03:01.953Z,12.50
2022-08-17T16:04:26.889Z,9.93
2022-08-17T16:06:58.781Z,12.15
2022-08-17T16:09:27.282Z,15.27
2022-08-17T16:11:56.356Z,15.60
2022-08-17T16:14:28.887Z,21.73
2022-08-17T16:17:01.477Z,21.35
2022-08-17T16:19:29.290Z,12.20
2022-08-17T16:24:25.104Z,15.93
2022-08-17T16:26:55.444Z,13.82
2022-08-17T16:29:23.613Z,12.38
2022-08-17T16:31:51.872Z,11.70
2022-08-17T16:34:20.154Z,14.05
2022-08-17T16:36:51.720Z,13.30
2022-08-17T16:39:25.727Z,14.35
2022-08-17T16:41:53.657Z,11.80
2022-08-17T16:44:22.173Z,22.52
2022-08-17T16:46:50.561Z,12.35
2022-08-17T16:49:35.244Z,15.65
2022-08-17T16:52:10.677Z,12.30
2022-08-17T16:54:44.110Z,9.80
2022-08-17T16:57:13.514Z,11.73
2022-08-17T16:59:43.911Z,10.40
2022-08-17T17:02:24.243Z,12.50
2022-08-17T17:05:10.916Z,16.08
2022-08-17T17:07:53.513Z,16.07
2022-08-17T17:10:26.441Z,12.52
2022-08-17T17:13:02.006Z,14.60
2022-08-17T17:16:06.184Z,13.68
2022-08-17T17:18:47.816Z,13.07
2022-08-17T17:21:21.090Z,9.13
2022-08-17T17:23:57.190Z,15.75
2022-08-17T17:26:29.575Z,13.90
2022-08-17T17:29:06.369Z,14.65
2022-08-17T17:31:43.115Z,15.73
2022-08-17T17:34:16.639Z,17.10
2022-08-17T17:36:54.495Z,13.15
2022-08-17T17:42:08.518Z,15.35
2022-08-17T17:44:43.862Z,12.20
2022-08-17T17:47:12.913Z,14.43
2022-08-17T17:49:46.748Z,13.75
2022-08-17T17:52:18.954Z,17.25
2022-08-17T17:54:50.035Z,13.27
2022-08-17T17:57:39.414Z,13.50
2022-08-17T18:00:15.254Z,12.57
2022-08-17T18:02:56.593Z,10.57
2022-08-17T18:05:39.513Z,12.52
2022-08-17T18:08:34.404Z,11.52
2022-08-17T18:11:24.657Z,12.32
2022-08-17T18:13:57.503Z,15.23
2022-08-17T18:16:31.899Z,17.25
2022-08-17T18:19:00.727Z,13.02
2022-08-17T18:21:44.046Z,14.35
2022-08-17T18:24:13.098Z,15.23
2022-08-17T18:26:55.605Z,13.40
2022-08-17T18:29:30.326Z,15.23
2022-08-17T18:32:16.339Z,11.90
2022-08-17T18:34:50.603Z,12.50
2022-08-17T18:37:45.336Z,15.35
2022-08-17T18:40:19.593Z,16.63
2022-08-17T18:42:59.275Z,14.65
2022-08-17T18:45:33.618Z,17.63
2022-08-17T18:48:02.569Z,13.00
2022-08-17T18:50:43.782Z,15.52
2022-08-17T18:53:21.488Z,15.25
2022-08-17T18:56:20.328Z,11.55
2022-08-17T18:58:58.929Z,10.18
2022-08-17T19:01:53.635Z,11.82
2022-08-17T19:04:42.424Z,7.65
2022-08-17T19:07:30.575Z,14.70
2022-08-17T19:10:28.961Z,11.45
2022-08-17T19:13:12.291Z,12.32
2022-08-17T19:16:12.161Z,9.32
2022-08-17T19:18:52.331Z,10.25
2022-08-17T19:21:37.386Z,16.20
2022-08-17T19:24:19.676Z,20.00
2022-08-17T19:26:55.587Z,13.68
2022-08-17T19:29:38.519Z,16.33
2022-08-17T19:32:11.208Z,12.15
2022-08-17T19:34:42.431Z,15.18
2022-08-17T19:37:26.881Z,16.83
2022-08-17T19:40:04.476Z,14.23
2022-08-17T19:42:51.504Z,16.60
2022-08-17T19:45:19.704Z,13.57
2022-08-17T19:51:01.786Z,10.27
2022-08-17T19:53:47.395Z,14.93
2022-08-17T19:56:36.040Z,15.18
2022-08-17T19:59:13.544Z,19.83
2022-08-17T20:01:52.885Z,16.83
2022-08-17T20:04:31.748Z,17.15
2022-08-17T20:07:06.253Z,15.02
2022-08-17T20:09:36.541Z,19.38
2022-08-17T20:12:10.467Z,20.67
2022-08-17T20:14:57.320Z,20.25
2022-08-17T20:17:34.695Z,23.00
2022-08-17T20:20:25.564Z,18.92
2022-08-17T20:23:13.778Z,18.27
2022-08-17T20:26:08.033Z,20.55
2022-08-17T20:28:39.073Z,19.25
2022-08-17T20:31:43.077Z,19.80
2022-08-17T20:34:36.697Z,23.20
2022-08-17T20:37:12.848Z,16.10
2022-08-17T20:40:09.428Z,16.52
2022-08-17T20:42:39.800Z,18.70
2022-08-17T20:45:24.762Z,22.02
2022-08-17T20:48:24.001Z,29.60
2022-08-17T20:50:57.097Z,36.45
2022-08-17T20:53:46.700Z,30.27
2022-08-17T20:56:52.632Z,23.60
2022-08-17T20:59:27.562Z,25.20
2022-08-17T21:02:18.621Z,27.80
2022-08-17T21:05:00.231Z,27.77
2022-08-17T21:07:43.573Z,23.95
2022-08-17T21:10:16.736Z,22.65
2022-08-17T21:13:15.755Z,21.85
2022-08-17T21:16:07.846Z,24.65
2022-08-17T21:18:48.716Z,34.58
2022-08-17T21:21:38.343Z,31.23
2022-08-17T21:24:38.044Z,28.55
2022-08-17T21:27:18.072Z,19.33
2022-08-17T21:30:06.707Z,24.02
2022-08-17T21:32:41.992Z,24.02
2022-08-17T21:35:28.753Z,29.75
2022-08-17T21:38:04.799Z,21.33
2022-08-17T21:40:34.374Z,26.65
2022-08-17T21:43:20.175Z,24.10
2022-08-17T21:45:57.746Z,26.30
2022-08-17T21:48:30.146Z,22.05
2022-08-17T21:51:03.910Z,26.15
2022-08-17T21:53:38.613Z,22.95
2022-08-17T21:56:07.971Z,22.42
2022-08-17T21:58:40.428Z,21.17
2022-08-17T22:01:25.764Z,24.83
2022-08-17T22:04:09.352Z,25.63
2022-08-17T22:06:37.443Z,21.23
2022-08-17T22:11:58.537Z,21.13
2022-08-17T22:14:52.218Z,21.55
2022-08-17T22:17:19.075Z,20.58
2022-08-17T22:19:57.623Z,25.50
2022-08-17T22:22:30.690Z,18.67
2022-08-17T22:25:07.481Z,28.55
2022-08-17T22:27:52.101Z,21.45
2022-08-17T22:30:42.596Z,17.83
2022-08-17T22:33:48.308Z,21.33
2022-08-17T22:36:34.905Z,19.60
2022-08-17T22:39:26.418Z,23.52
2022-08-17T22:42:00.344Z,22.00
2022-08-17T22:44:37.870Z,22.15
2022-08-17T22:47:18.956Z,20.63
2022-08-17T22:49:53.188Z,18.58
2022-08-17T22:52:36.196Z,33.22
2022-08-17T22:55:36.632Z,16.40
2022-08-17T22:58:30.428Z,19.50
2022-08-17T23:01:29.610Z,20.67
2022-08-17T23:04:07.976Z,23.55
2022-08-17T23:06:38.261Z,21.08
2022-08-17T23:09:07.272Z,27.65
2022-08-17T23:11:48.585Z,20.23
2022-08-17T23:14:20.681Z,23.73
2022-08-17T23:16:50.483Z,26.52
2022-08-17T23:19:21.445Z,17.40
2022-08-17T23:21:55.258Z,21.33
2022-08-17T23:24:27.451Z,23.60
2022-08-17T23:27:00.025Z,21.50
2022-08-17T23:29:29.669Z,17.30
2022-08-17T23:31:59.996Z,25.08
2022-08-17T23:34:28.526Z,21.42
2022-08-17T23:36:56.391Z,22.42
2022-08-17T23:39:27.990Z,19.98
2022-08-17T23:41:59.106Z,18.20
2022-08-17T23:44:29.082Z,21.17
2022-08-17T23:46:57.273Z,17.45
2022-08-17T23:49:25.383Z,22.02
2022-08-17T23:54:34.267Z,16.02
2022-08-17T23:57:04.859Z,22.10
2022-08-17T23:59:33.941Z,20.10
